createdAt,value
2018-02-25T00:01:05.389Z,2.60
2018-02-25T00:03:32.015Z,3.10
2018-02-25T00:05:58.649Z,3.00
2018-02-25T00:08:25.343Z,2.30
2018-02-25T00:10:52.060Z,2.50
2018-02-25T00:13:18.710Z,2.75
2018-02-25T00:15:45.362Z,2.20
2018-02-25T00:18:12.002Z,2.30
2018-02-25T00:20:38.618Z,2.03
2018-02-25T00:23:05.274Z,2.08
2018-02-25T00:25:31.924Z,2.20
2018-02-25T00:27:58.544Z,2.20
2018-02-25T00:30:25.167Z,1.92
2018-02-25T00:32:51.846Z,2.50
2018-02-25T00:35:18.509Z,2.33
2018-02-25T00:37:45.163Z,2.00
2018-02-25T00:40:11.771Z,1.87
2018-02-25T00:42:38.467Z,2.55
2018-02-25T00:45:05.056Z,2.60
2018-02-25T00:47:31.656Z,2.85
2018-02-25T00:49:58.300Z,2.30
2018-02-25T00:52:24.976Z,1.60
2018-02-25T00:54:51.571Z,1.85
2018-02-25T00:57:18.183Z,2.50
2018-02-25T00:59:44.793Z,1.92
2018-02-25T01:02:11.427Z,2.67
2018-02-25T01:04:38.044Z,2.50
2018-02-25T01:07:04.713Z,3.00
2018-02-25T01:09:31.299Z,2.42
2018-02-25T01:11:57.933Z,1.67
2018-02-25T01:14:24.539Z,2.33
2018-02-25T01:16:51.167Z,2.30
2018-02-25T01:19:17.785Z,2.55
2018-02-25T01:21:44.422Z,1.77
2018-02-25T01:24:11.027Z,2.10
2018-02-25T01:26:37.636Z,2.12
2018-02-25T01:29:04.314Z,3.03
2018-02-25T01:31:30.924Z,1.70
2018-02-25T01:33:57.552Z,2.45
2018-02-25T01:36:24.176Z,2.40
2018-02-25T01:38:50.819Z,3.00
2018-02-25T01:41:17.431Z,2.87
2018-02-25T01:43:44.064Z,2.42
2018-02-25T01:46:10.675Z,2.60
2018-02-25T01:48:37.303Z,2.20
2018-02-25T01:51:04.684Z,2.65
2018-02-25T01:53:31.308Z,2.42
2018-02-25T01:55:57.920Z,1.87
2018-02-25T01:58:24.550Z,2.62
2018-02-25T02:00:51.154Z,2.80
2018-02-25T02:03:17.787Z,1.85
2018-02-25T02:05:44.400Z,3.03
2018-02-25T02:08:11.148Z,2.00
2018-02-25T02:10:37.764Z,2.05
2018-02-25T02:13:04.376Z,2.70
2018-02-25T02:15:31.017Z,2.62
2018-02-25T02:17:57.644Z,3.05
2018-02-25T02:20:24.284Z,2.85
2018-02-25T02:22:50.921Z,2.70
2018-02-25T02:25:17.564Z,2.65
2018-02-25T02:27:44.172Z,2.97
2018-02-25T02:30:10.816Z,2.22
2018-02-25T02:32:37.421Z,2.20
2018-02-25T02:35:04.087Z,2.55
2018-02-25T02:37:30.713Z,2.40
2018-02-25T02:39:57.469Z,2.47
2018-02-25T02:42:24.055Z,2.58
2018-02-25T02:44:50.664Z,2.53
2018-02-25T02:47:17.290Z,2.25
2018-02-25T02:49:43.926Z,2.47
2018-02-25T02:52:10.545Z,2.55
2018-02-25T02:54:37.146Z,1.75
2018-02-25T02:57:03.776Z,2.62
2018-02-25T02:59:30.388Z,2.70
2018-02-25T03:01:57.032Z,2.60
2018-02-25T03:04:23.628Z,2.25
2018-02-25T03:06:50.319Z,2.65
2018-02-25T03:09:16.955Z,2.45
2018-02-25T03:11:43.551Z,2.30
2018-02-25T03:14:10.174Z,1.92
2018-02-25T03:16:36.796Z,2.80
2018-02-25T03:19:03.428Z,2.45
2018-02-25T03:21:30.076Z,2.45
2018-02-25T03:23:56.679Z,2.70
2018-02-25T03:26:23.279Z,2.65
2018-02-25T03:28:49.898Z,2.55
2018-02-25T03:31:16.557Z,2.10
2018-02-25T03:33:43.139Z,2.70
2018-02-25T03:36:09.747Z,2.60
2018-02-25T03:38:36.363Z,2.90
2018-02-25T03:41:02.970Z,2.40
2018-02-25T03:43:29.589Z,2.37
2018-02-25T03:45:56.202Z,2.33
2018-02-25T03:48:22.815Z,2.33
2018-02-25T03:50:49.425Z,2.50
2018-02-25T03:53:16.044Z,2.83
2018-02-25T03:55:42.683Z,2.20
2018-02-25T03:58:09.329Z,2.30
2018-02-25T04:00:35.991Z,3.22
2018-02-25T04:03:02.617Z,2.35
2018-02-25T04:05:29.232Z,2.83
2018-02-25T04:07:55.851Z,2.80
2018-02-25T04:10:22.469Z,2.40
2018-02-25T04:12:49.179Z,3.10
2018-02-25T04:15:15.806Z,2.60
2018-02-25T04:17:42.418Z,2.90
2018-02-25T04:20:09.720Z,2.97
2018-02-25T04:22:36.332Z,2.37
2018-02-25T04:25:02.949Z,2.72
2018-02-25T04:27:29.560Z,3.58
2018-02-25T04:29:56.188Z,2.50
2018-02-25T04:32:22.839Z,2.75
2018-02-25T04:34:49.460Z,2.28
2018-02-25T04:37:16.075Z,3.05
2018-02-25T04:39:42.680Z,2.30
2018-02-25T04:42:09.339Z,2.50
2018-02-25T04:44:35.952Z,2.60
2018-02-25T04:47:02.575Z,2.70
2018-02-25T04:49:29.187Z,2.62
2018-02-25T04:51:55.815Z,2.62
2018-02-25T04:54:22.447Z,3.62
2018-02-25T04:56:49.071Z,2.05
2018-02-25T04:59:15.677Z,2.55
2018-02-25T05:01:42.302Z,2.40
2018-02-25T05:04:08.910Z,3.12
2018-02-25T05:06:35.550Z,2.92
2018-02-25T05:09:02.175Z,2.65
2018-02-25T05:11:28.778Z,2.75
2018-02-25T05:13:55.407Z,2.83
2018-02-25T05:16:22.044Z,2.85
2018-02-25T05:18:48.685Z,2.67
2018-02-25T05:21:15.300Z,2.80
2018-02-25T05:23:41.965Z,2.55
2018-02-25T05:26:09.189Z,3.65
2018-02-25T05:28:35.809Z,2.67
2018-02-25T05:31:02.420Z,3.20
2018-02-25T05:33:29.047Z,3.65
2018-02-25T05:35:55.665Z,3.42
2018-02-25T05:38:22.279Z,3.28
2018-02-25T05:40:48.905Z,3.53
2018-02-25T05:43:15.523Z,2.83
2018-02-25T05:45:42.129Z,2.75
2018-02-25T05:48:08.765Z,3.35
2018-02-25T05:50:35.376Z,3.50
2018-02-25T05:53:01.988Z,2.90
2018-02-25T05:55:28.619Z,2.85
2018-02-25T05:57:55.233Z,3.25
2018-02-25T06:00:21.855Z,3.33
2018-02-25T06:02:48.474Z,3.67
2018-02-25T06:05:15.091Z,2.65
2018-02-25T06:07:41.699Z,2.40
2018-02-25T06:10:08.327Z,3.33
2018-02-25T06:12:34.947Z,2.80
2018-02-25T06:15:01.578Z,3.17
2018-02-25T06:17:28.181Z,2.65
2018-02-25T06:19:54.799Z,3.10
2018-02-25T06:22:21.419Z,3.17
2018-02-25T06:24:48.088Z,3.70
2018-02-25T06:27:14.719Z,3.42
2018-02-25T06:29:41.346Z,2.35
2018-02-25T06:32:07.984Z,3.08
2018-02-25T06:34:34.584Z,2.58
2018-02-25T06:37:01.216Z,3.60
2018-02-25T06:39:27.833Z,2.53
2018-02-25T06:41:54.463Z,3.53
2018-02-25T06:44:21.076Z,3.37
2018-02-25T06:46:47.711Z,3.75
2018-02-25T06:49:14.348Z,4.07
2018-02-25T06:51:40.977Z,3.45
2018-02-25T06:54:07.587Z,3.80
2018-02-25T06:56:34.201Z,3.95
2018-02-25T06:59:00.825Z,5.53
2018-02-25T07:01:27.436Z,3.90
2018-02-25T07:03:54.086Z,2.85
2018-02-25T07:06:20.697Z,3.87
2018-02-25T07:08:47.347Z,2.87
2018-02-25T07:11:13.956Z,2.62
2018-02-25T07:13:40.624Z,2.85
2018-02-25T07:16:07.236Z,3.45
2018-02-25T07:18:33.860Z,2.65
2018-02-25T07:21:00.575Z,2.70
2018-02-25T07:23:27.212Z,2.90
2018-02-25T07:25:54.344Z,2.47
2018-02-25T07:28:21.483Z,3.03
2018-02-25T07:30:48.117Z,2.80
2018-02-25T07:33:14.733Z,2.87
2018-02-25T07:35:41.363Z,2.85
2018-02-25T07:38:07.968Z,3.03
2018-02-25T07:40:34.589Z,2.90
2018-02-25T07:43:01.222Z,4.00
2018-02-25T07:45:27.867Z,3.35
2018-02-25T07:47:54.473Z,3.97
2018-02-25T07:50:21.113Z,3.08
2018-02-25T07:52:47.728Z,3.22
2018-02-25T07:55:14.369Z,3.33
2018-02-25T07:57:40.968Z,3.40
2018-02-25T08:00:07.602Z,3.55
2018-02-25T08:02:34.217Z,3.55
2018-02-25T08:05:00.837Z,4.00
2018-02-25T08:07:27.458Z,3.97
2018-02-25T08:09:54.092Z,3.20
2018-02-25T08:12:20.749Z,3.60
2018-02-25T08:14:47.388Z,2.90
2018-02-25T08:17:14.015Z,3.10
2018-02-25T08:19:41.231Z,3.60
2018-02-25T08:22:07.856Z,2.90
2018-02-25T08:24:34.486Z,3.15
2018-02-25T08:27:01.114Z,3.37
2018-02-25T08:29:27.744Z,4.30
2018-02-25T08:31:54.391Z,2.83
2018-02-25T08:34:21.064Z,3.55
2018-02-25T08:36:47.707Z,3.58
2018-02-25T08:39:14.322Z,3.28
2018-02-25T08:41:40.958Z,3.17
2018-02-25T08:44:07.563Z,2.65
2018-02-25T08:46:34.199Z,2.95
2018-02-25T08:49:00.808Z,3.55
2018-02-25T08:51:27.428Z,2.70
2018-02-25T08:53:54.187Z,3.45
2018-02-25T08:56:20.808Z,3.75
2018-02-25T08:58:47.441Z,3.70
2018-02-25T09:01:14.055Z,3.55
2018-02-25T09:03:40.688Z,3.35
2018-02-25T09:06:07.349Z,3.28
2018-02-25T09:08:33.999Z,3.28
2018-02-25T09:11:00.608Z,2.67
2018-02-25T09:13:27.292Z,3.22
2018-02-25T09:15:53.904Z,2.95
2018-02-25T09:18:20.528Z,3.15
2018-02-25T09:20:47.258Z,2.80
2018-02-25T09:23:13.873Z,3.47
2018-02-25T09:25:40.624Z,2.80
2018-02-25T09:28:07.266Z,2.45
2018-02-25T09:30:33.989Z,2.80
2018-02-25T09:33:00.578Z,2.67
2018-02-25T09:35:27.213Z,2.70
2018-02-25T09:37:53.835Z,3.25
2018-02-25T09:40:21.380Z,2.50
2018-02-25T09:42:48.020Z,2.55
2018-02-25T09:45:14.639Z,3.20
2018-02-25T09:47:41.323Z,2.30
2018-02-25T09:50:08.873Z,2.83
2018-02-25T09:52:36.424Z,2.80
2018-02-25T09:55:03.061Z,2.92
2018-02-25T09:57:29.687Z,3.62
2018-02-25T09:59:56.454Z,3.95
2018-02-25T10:02:23.099Z,3.50
2018-02-25T10:04:49.754Z,4.12
2018-02-25T10:07:16.378Z,4.05
2018-02-25T10:09:43.048Z,4.20
2018-02-25T10:12:09.712Z,4.32
2018-02-25T10:14:36.365Z,4.97
2018-02-25T10:17:03.042Z,4.97
2018-02-25T10:19:29.694Z,5.00
2018-02-25T10:21:56.381Z,4.18
2018-02-25T10:24:23.010Z,4.80
2018-02-25T10:26:49.666Z,3.62
2018-02-25T10:29:16.428Z,2.90
2018-02-25T10:31:43.109Z,2.90
2018-02-25T10:34:09.796Z,2.85
2018-02-25T10:36:36.562Z,2.45
2018-02-25T10:39:03.228Z,2.00
2018-02-25T10:41:29.936Z,2.33
2018-02-25T10:43:56.642Z,2.28
2018-02-25T10:46:23.349Z,1.95
2018-02-25T10:48:50.001Z,2.05
2018-02-25T10:51:16.625Z,2.15
2018-02-25T10:53:43.342Z,2.90
2018-02-25T10:56:10.111Z,2.15
2018-02-25T10:58:36.801Z,1.95
2018-02-25T11:01:07.329Z,1.50
2018-02-25T11:03:33.978Z,1.60
2018-02-25T11:06:01.591Z,2.22
2018-02-25T11:08:33.745Z,2.17
2018-02-25T11:11:00.983Z,2.72
2018-02-25T11:13:27.740Z,2.90
2018-02-25T11:15:58.777Z,2.42
2018-02-25T11:18:36.723Z,1.73
2018-02-25T11:21:09.692Z,2.12
2018-02-25T11:23:36.956Z,2.15
2018-02-25T11:26:08.949Z,1.70
2018-02-25T11:28:40.156Z,2.00
2018-02-25T11:31:15.175Z,1.92
2018-02-25T11:33:46.037Z,2.22
2018-02-25T11:36:17.042Z,2.12
2018-02-25T11:38:44.464Z,2.10
2018-02-25T11:41:11.158Z,2.03
2018-02-25T11:43:41.919Z,2.00
2018-02-25T11:46:08.619Z,1.80
2018-02-25T11:48:39.447Z,1.70
2018-02-25T11:51:06.861Z,2.12
2018-02-25T11:53:42.891Z,2.30
2018-02-25T11:56:09.598Z,2.92
2018-02-25T11:58:37.592Z,1.60
2018-02-25T12:01:05.844Z,1.80
2018-02-25T12:03:37.807Z,2.30
2018-02-25T12:06:09.311Z,1.92
2018-02-25T12:08:36.889Z,1.67
2018-02-25T12:11:07.957Z,1.92
2018-02-25T12:13:39.921Z,2.10
2018-02-25T12:16:07.548Z,1.80
2018-02-25T12:18:35.347Z,2.95
2018-02-25T12:21:08.288Z,3.35
2018-02-25T12:23:35.724Z,1.55
2018-02-25T12:26:10.948Z,1.90
2018-02-25T12:28:38.422Z,2.00
2018-02-25T12:31:05.214Z,1.55
2018-02-25T12:33:32.925Z,2.17
2018-02-25T12:36:05.472Z,1.83
2018-02-25T12:38:33.763Z,2.53
2018-02-25T12:41:00.564Z,1.17
2018-02-25T12:43:27.323Z,1.42
2018-02-25T12:45:53.931Z,1.83
2018-02-25T12:48:20.596Z,2.60
2018-02-25T12:50:47.219Z,1.37
2018-02-25T12:53:13.861Z,2.28
2018-02-25T12:55:40.508Z,3.37
2018-02-25T12:58:07.177Z,2.25
2018-02-25T13:00:33.838Z,2.25
2018-02-25T13:03:00.484Z,2.40
2018-02-25T13:05:27.172Z,2.03
2018-02-25T13:07:53.819Z,1.95
2018-02-25T13:10:20.500Z,2.08
2018-02-25T13:12:47.150Z,1.67
2018-02-25T13:15:13.862Z,2.40
2018-02-25T13:17:40.513Z,1.73
2018-02-25T13:20:07.444Z,1.67
2018-02-25T13:22:34.080Z,1.98
2018-02-25T13:25:00.800Z,1.90
2018-02-25T13:27:27.546Z,2.87
2018-02-25T13:29:54.227Z,1.73
2018-02-25T13:32:20.919Z,2.55
2018-02-25T13:34:47.571Z,1.75
2018-02-25T13:37:14.316Z,1.20
2018-02-25T13:39:41.901Z,1.90
2018-02-25T13:42:08.617Z,1.50
2018-02-25T13:44:35.285Z,1.80
2018-02-25T13:47:05.954Z,1.85
2018-02-25T13:49:32.628Z,1.98
2018-02-25T13:51:59.298Z,1.65
2018-02-25T13:54:25.969Z,1.90
2018-02-25T13:56:52.664Z,2.00
2018-02-25T13:59:19.298Z,2.15
2018-02-25T14:01:46.014Z,1.50
2018-02-25T14:04:12.757Z,1.60
2018-02-25T14:06:39.391Z,1.55
2018-02-25T14:09:06.076Z,1.73
2018-02-25T14:11:32.828Z,2.33
2018-02-25T14:13:59.520Z,1.62
2018-02-25T14:16:26.181Z,2.05
2018-02-25T14:18:52.910Z,2.45
2018-02-25T14:21:19.538Z,1.45
2018-02-25T14:23:46.221Z,1.70
2018-02-25T14:26:12.895Z,1.77
2018-02-25T14:28:39.618Z,2.30
2018-02-25T14:31:06.288Z,1.40
2018-02-25T14:33:33.072Z,1.85
2018-02-25T14:35:59.828Z,1.70
2018-02-25T14:38:26.692Z,1.92
2018-02-25T14:40:53.350Z,1.42
2018-02-25T14:43:20.104Z,1.58
2018-02-25T14:45:46.776Z,1.40
2018-02-25T14:48:13.456Z,1.80
2018-02-25T14:50:40.116Z,1.50
2018-02-25T14:53:06.774Z,2.62
2018-02-25T14:55:33.482Z,2.00
2018-02-25T14:58:00.759Z,1.62
2018-02-25T15:00:27.421Z,2.00
2018-02-25T15:02:54.045Z,2.40
2018-02-25T15:05:20.721Z,1.50
2018-02-25T15:07:47.377Z,1.90
2018-02-25T15:10:14.140Z,1.90
2018-02-25T15:12:40.803Z,1.52
2018-02-25T15:15:07.450Z,1.85
2018-02-25T15:17:34.142Z,2.10
2018-02-25T15:20:00.842Z,1.60
2018-02-25T15:22:27.448Z,1.75
2018-02-25T15:24:54.254Z,2.12
2018-02-25T15:27:20.876Z,1.48
2018-02-25T15:29:47.649Z,2.22
2018-02-25T15:32:14.297Z,2.10
2018-02-25T15:34:40.940Z,1.90
2018-02-25T15:37:08.580Z,1.75
2018-02-25T15:39:35.266Z,2.42
2018-02-25T15:42:01.923Z,1.70
2018-02-25T15:44:28.565Z,1.75
2018-02-25T15:46:55.267Z,1.75
2018-02-25T15:49:21.946Z,1.90
2018-02-25T15:51:48.667Z,1.95
2018-02-25T15:54:15.367Z,2.22
2018-02-25T15:56:42.094Z,2.00
2018-02-25T15:59:09.903Z,1.50
2018-02-25T16:01:36.597Z,1.70
2018-02-25T16:04:03.214Z,1.02
2018-02-25T16:06:29.852Z,2.08
2018-02-25T16:08:56.526Z,1.48
2018-02-25T16:11:23.239Z,1.70
2018-02-25T16:13:49.989Z,1.60
2018-02-25T16:16:16.654Z,1.70
2018-02-25T16:18:43.342Z,2.12
2018-02-25T16:21:10.003Z,1.50
2018-02-25T16:23:36.815Z,1.70
2018-02-25T16:26:03.464Z,2.50
2018-02-25T16:28:30.115Z,2.70
2018-02-25T16:30:56.776Z,1.90
2018-02-25T16:33:23.464Z,3.10
2018-02-25T16:35:50.112Z,2.10
2018-02-25T16:38:16.786Z,3.05
2018-02-25T16:40:43.431Z,2.20
2018-02-25T16:43:10.076Z,2.55
2018-02-25T16:45:36.756Z,2.40
2018-02-25T16:48:03.401Z,2.87
2018-02-25T16:50:30.102Z,2.10
2018-02-25T16:52:56.738Z,2.37
2018-02-25T16:55:23.433Z,2.42
2018-02-25T16:57:50.099Z,2.67
2018-02-25T17:00:16.863Z,1.87
2018-02-25T17:02:43.536Z,1.98
2018-02-25T17:05:10.263Z,2.55
2018-02-25T17:07:36.938Z,2.50
2018-02-25T17:10:03.593Z,2.28
2018-02-25T17:12:30.290Z,2.20
2018-02-25T17:14:56.921Z,2.78
2018-02-25T17:17:23.665Z,3.70
2018-02-25T17:19:50.304Z,2.55
2018-02-25T17:22:16.990Z,2.83
2018-02-25T17:24:43.690Z,2.15
2018-02-25T17:27:10.389Z,2.67
2018-02-25T17:29:37.006Z,2.28
2018-02-25T17:32:03.720Z,2.25
2018-02-25T17:34:30.431Z,3.15
2018-02-25T17:36:57.130Z,2.22
2018-02-25T17:39:23.786Z,2.53
2018-02-25T17:41:50.472Z,2.58
2018-02-25T17:44:17.138Z,2.28
2018-02-25T17:46:43.807Z,2.47
2018-02-25T17:49:10.542Z,2.00
2018-02-25T17:51:37.194Z,2.65
2018-02-25T17:54:08.110Z,2.65
2018-02-25T17:56:36.600Z,2.67
2018-02-25T17:59:03.380Z,2.60
2018-02-25T18:01:30.935Z,2.87
2018-02-25T18:03:58.158Z,3.17
2018-02-25T18:06:26.231Z,4.10
2018-02-25T18:08:53.615Z,3.20
2018-02-25T18:11:22.859Z,2.70
2018-02-25T18:13:51.236Z,3.35
2018-02-25T18:16:18.165Z,3.55
2018-02-25T18:18:45.143Z,3.12
2018-02-25T18:21:11.898Z,2.53
2018-02-25T18:23:38.897Z,2.97
2018-02-25T18:26:05.636Z,2.65
2018-02-25T18:28:38.108Z,2.45
2018-02-25T18:31:05.457Z,2.20
2018-02-25T18:33:32.551Z,2.55
2018-02-25T18:36:00.047Z,2.28
2018-02-25T18:38:32.951Z,2.65
2018-02-25T18:40:59.852Z,2.10
2018-02-25T18:43:26.528Z,4.40
2018-02-25T18:45:56.285Z,4.32
2018-02-25T18:48:24.409Z,2.65
2018-02-25T18:50:52.774Z,3.40
2018-02-25T18:53:19.809Z,2.80
2018-02-25T18:55:46.805Z,2.75
2018-02-25T18:58:14.100Z,3.20
2018-02-25T19:00:47.294Z,2.45
2018-02-25T19:03:14.354Z,2.58
2018-02-25T19:05:41.472Z,2.60
2018-02-25T19:08:09.884Z,3.08
2018-02-25T19:10:40.394Z,3.00
2018-02-25T19:13:07.265Z,2.40
2018-02-25T19:15:34.182Z,2.37
2018-02-25T19:18:02.353Z,2.50
2018-02-25T19:20:29.521Z,2.60
2018-02-25T19:22:56.342Z,3.40
2018-02-25T19:25:23.216Z,2.53
2018-02-25T19:27:50.870Z,2.90
2018-02-25T19:30:18.821Z,3.25
2018-02-25T19:32:46.282Z,2.80
2018-02-25T19:35:13.140Z,3.10
2018-02-25T19:37:46.509Z,2.67
2018-02-25T19:40:13.564Z,3.00
2018-02-25T19:42:40.510Z,2.80
2018-02-25T19:45:08.487Z,3.17
2018-02-25T19:47:36.404Z,2.90
2018-02-25T19:50:03.518Z,2.25
2018-02-25T19:52:30.408Z,3.20
2018-02-25T19:54:57.855Z,3.95
2018-02-25T19:57:24.888Z,3.50
2018-02-25T19:59:51.787Z,3.28
2018-02-25T20:02:18.618Z,3.95
2018-02-25T20:04:45.699Z,4.03
2018-02-25T20:07:12.753Z,4.22
2018-02-25T20:09:39.918Z,2.92
2018-02-25T20:12:08.715Z,3.05
2018-02-25T20:14:36.720Z,4.10
2018-02-25T20:17:03.478Z,3.75
2018-02-25T20:19:30.425Z,3.25
2018-02-25T20:21:57.298Z,2.90
2018-02-25T20:24:24.112Z,3.30
2018-02-25T20:26:51.076Z,3.53
2018-02-25T20:29:18.487Z,3.80
2018-02-25T20:31:46.093Z,3.78
2018-02-25T20:34:13.657Z,2.80
2018-02-25T20:36:44.586Z,3.00
2018-02-25T20:39:12.276Z,3.17
2018-02-25T20:41:39.572Z,3.22
2018-02-25T20:44:06.442Z,3.80
2018-02-25T20:46:34.052Z,3.35
2018-02-25T20:49:00.760Z,3.15
2018-02-25T20:51:27.792Z,4.50
2018-02-25T20:53:55.462Z,4.00
2018-02-25T20:56:22.410Z,4.97
2018-02-25T20:58:50.268Z,3.85
2018-02-25T21:01:18.208Z,3.67
2018-02-25T21:03:44.985Z,3.33
2018-02-25T21:06:11.938Z,5.57
2018-02-25T21:08:42.927Z,5.00
2018-02-25T21:11:13.924Z,4.30
2018-02-25T21:13:40.651Z,4.55
2018-02-25T21:16:07.488Z,4.03
2018-02-25T21:18:34.248Z,3.78
2018-02-25T21:21:01.091Z,4.28
2018-02-25T21:23:27.922Z,3.55
2018-02-25T21:25:54.788Z,5.20
2018-02-25T21:28:22.087Z,5.25
2018-02-25T21:30:48.994Z,4.95
2018-02-25T21:33:16.398Z,4.65
2018-02-25T21:35:43.410Z,5.37
2018-02-25T21:38:10.453Z,4.03
2018-02-25T21:40:37.484Z,3.17
2018-02-25T21:43:05.177Z,2.80
2018-02-25T21:45:32.421Z,4.00
2018-02-25T21:47:59.512Z,3.20
2018-02-25T21:50:26.529Z,4.22
2018-02-25T21:52:53.239Z,4.70
2018-02-25T21:55:20.019Z,3.75
2018-02-25T21:57:52.436Z,4.80
2018-02-25T22:00:34.013Z,4.37
2018-02-25T22:03:06.888Z,3.35
2018-02-25T22:05:33.900Z,4.62
2018-02-25T22:08:01.145Z,3.80
2018-02-25T22:10:28.255Z,4.65
2018-02-25T22:12:59.267Z,3.92
2018-02-25T22:15:28.331Z,4.87
2018-02-25T22:17:58.560Z,4.78
2018-02-25T22:20:25.390Z,4.47
2018-02-25T22:22:52.516Z,4.70
2018-02-25T22:25:20.900Z,3.80
2018-02-25T22:27:47.736Z,5.30
2018-02-25T22:30:16.120Z,4.70
2018-02-25T22:32:43.545Z,4.15
2018-02-25T22:35:12.358Z,4.60
2018-02-25T22:37:39.056Z,4.30
2018-02-25T22:40:05.705Z,4.37
2018-02-25T22:42:32.402Z,4.50
2018-02-25T22:44:59.041Z,4.57
2018-02-25T22:47:25.778Z,5.05
2018-02-25T22:49:53.347Z,4.40
2018-02-25T22:52:20.557Z,4.68
2018-02-25T22:54:47.198Z,5.15
2018-02-25T22:57:13.825Z,4.80
2018-02-25T22:59:44.716Z,4.75
2018-02-25T23:02:12.056Z,4.97
2018-02-25T23:04:38.784Z,4.72
2018-02-25T23:07:06.191Z,6.32
2018-02-25T23:09:33.267Z,5.57
2018-02-25T23:11:59.961Z,5.57
2018-02-25T23:14:26.638Z,6.70
2018-02-25T23:16:53.814Z,5.80
2018-02-25T23:19:20.498Z,5.78
2018-02-25T23:21:47.180Z,5.60
2018-02-25T23:24:14.260Z,5.97
2018-02-25T23:26:40.980Z,6.00
2018-02-25T23:29:07.599Z,6.57
2018-02-25T23:31:38.372Z,6.62
2018-02-25T23:34:05.511Z,4.97
2018-02-25T23:36:33.420Z,5.25
2018-02-25T23:39:00.149Z,5.65
2018-02-25T23:41:26.823Z,5.75
2018-02-25T23:43:54.186Z,5.53
2018-02-25T23:46:21.792Z,5.32
2018-02-25T23:48:50.733Z,5.32
2018-02-25T23:51:19.040Z,5.05
2018-02-25T23:53:47.312Z,4.53
2018-02-25T23:56:13.948Z,4.07
2018-02-25T23:58:40.626Z,4.62
